Time;durP1;ratioP1;P1;durP2;ratioP2;P2;SDS_P1;SDS_P2;PMS_P1;PMS_P2;Temp;Humidity;BMP_temperature;BMP_pressure;BME280_temperature;BME280_humidity;BME280_pressure;Samples;Min_cycle;Max_cycle;Signal;HPM_P1;HPM_P2
2022/01/02 00:01:35;;;;;;;8.02;6.45;;;;;;;11.10;100.00;101680.94;10540102;28;20455;-77
2022/01/02 00:06:36;;;;;;;10.13;5.93;;;;;;;11.07;100.00;101671.31;10522361;28;20101;-78
2022/01/02 00:11:37;;;;;;;8.07;6.32;;;;;;;11.07;100.00;101667.75;10523461;28;20061;-79
2022/01/02 00:16:38;;;;;;;8.65;5.65;;;;;;;11.09;100.00;101680.09;10541356;28;20361;-79
2022/01/02 00:21:44;;;;;;;13.30;7.82;;;;;;;11.12;100.00;101687.03;10540360;28;20032;-78
2022/01/02 00:26:45;;;;;;;17.27;7.38;;;;;;;11.18;100.00;101676.28;10541486;28;20032;-79
2022/01/02 00:31:46;;;;;;;8.85;7.05;;;;;;;11.30;100.00;101662.31;10521977;28;20044;-78
2022/01/02 00:36:46;;;;;;;10.45;7.68;;;;;;;11.15;100.00;101649.53;10526573;28;20464;-80
2022/01/02 00:41:54;;;;;;;7.50;6.30;;;;;;;11.25;100.00;101649.28;10530337;28;20024;-78
2022/01/02 00:47:07;;;;;;;16.40;6.90;;;;;;;11.14;100.00;101631.59;10530951;28;20078;-78
2022/01/02 00:52:13;;;;;;;16.20;7.60;;;;;;;11.21;100.00;101637.13;10548299;28;20517;-78
2022/01/02 00:57:16;;;;;;;16.02;5.47;;;;;;;11.20;100.00;101616.47;10528859;28;20052;-80
2022/01/02 01:02:18;;;;;;;9.43;7.57;;;;;;;11.20;100.00;101616.47;10547141;28;20032;-79
2022/01/02 01:07:19;;;;;;;8.05;6.47;;;;;;;11.30;100.00;101622.47;10529445;28;20028;-80
2022/01/02 01:12:19;;;;;;;16.88;7.45;;;;;;;11.38;100.00;101570.84;10513732;28;20031;-80
2022/01/02 01:17:20;;;;;;;17.75;7.13;;;;;;;11.45;100.00;101564.69;10531999;28;20499;-79
2022/01/02 01:22:20;;;;;;;14.75;5.40;;;;;;;11.49;100.00;101555.16;10532309;28;20114;-80
2022/01/02 01:27:21;;;;;;;10.80;5.78;;;;;;;11.52;100.00;101544.78;10545773;28;20047;-79
2022/01/02 01:32:21;;;;;;;11.30;5.70;;;;;;;11.71;100.00;101553.34;10527569;28;20071;-78
2022/01/02 01:37:21;;;;;;;9.50;5.38;;;;;;;11.85;100.00;101549.81;10527998;28;20028;-80
2022/01/02 01:47:50;;;;;;;12.20;4.43;;;;;;;11.88;100.00;101532.31;10508884;28;20113;-80
2022/01/02 01:52:50;;;;;;;15.63;5.75;;;;;;;11.86;100.00;101538.75;10527835;28;20028;-79
2022/01/02 01:57:51;;;;;;;11.05;6.95;;;;;;;11.84;100.00;101529.13;10545418;28;20464;-79
2022/01/02 02:02:52;;;;;;;16.15;5.57;;;;;;;11.92;100.00;101510.03;10545660;28;20062;-79
2022/01/02 02:07:52;;;;;;;10.48;3.97;;;;;;;11.98;100.00;101506.53;10510593;28;20067;-79
2022/01/02 02:12:54;;;;;;;6.35;4.47;;;;;;;12.03;100.00;101487.81;10527028;28;20081;-79
2022/01/02 02:17:55;;;;;;;13.07;4.85;;;;;;;12.12;100.00;101506.69;10544464;28;20050;-79
2022/01/02 02:22:57;;;;;;;11.68;5.35;;;;;;;12.11;100.00;101503.13;10525550;28;20035;-79
2022/01/02 02:27:59;;;;;;;16.08;4.78;;;;;;;12.15;100.00;101485.41;10509712;28;20065;-79
2022/01/02 02:33:00;;;;;;;9.57;4.20;;;;;;;12.20;100.00;101488.41;10508450;28;20028;-79
2022/01/02 02:38:01;;;;;;;14.45;4.18;;;;;;;12.28;100.00;101484.69;10542951;28;20464;-78
2022/01/02 02:43:13;;;;;;;14.00;4.45;;;;;;;12.29;100.00;101449.22;10543681;28;20028;-79
2022/01/02 02:49:00;;;;;;;17.70;3.60;;;;;;;12.32;99.29;101450.72;10543611;28;20165;-78
2022/01/02 02:53:54;;;;;;;11.25;5.00;;;;;;;12.46;100.00;101449.78;10543006;28;20050;-79
2022/01/02 02:58:56;;;;;;;13.77;5.43;;;;;;;12.51;100.00;101470.94;10524495;28;20436;-79
2022/01/02 03:03:57;;;;;;;21.80;4.20;;;;;;;12.46;97.74;101470.66;10524726;28;20032;-79
2022/01/02 03:09:05;;;;;;;9.27;4.13;;;;;;;12.44;98.93;101457.25;10542330;28;20519;-78
2022/01/02 03:14:06;;;;;;;12.63;4.68;;;;;;;12.30;99.30;101422.91;10542826;28;20028;-77
2022/01/02 03:19:06;;;;;;;9.55;3.58;;;;;;;12.21;100.00;101430.31;10506932;28;20032;-78
2022/01/02 03:24:07;;;;;;;10.45;3.85;;;;;;;12.33;100.00;101422.50;10542163;28;20422;-77
2022/01/02 03:29:07;;;;;;;11.15;3.53;;;;;;;12.24;99.64;101394.63;10526128;28;20032;-78
2022/01/02 03:34:07;;;;;;;10.93;4.75;;;;;;;12.26;99.17;101406.16;10543984;28;20454;-78
2022/01/02 03:39:08;;;;;;;13.05;4.35;;;;;;;12.31;99.23;101400.13;10526111;28;20042;-77
2022/01/02 03:44:08;;;;;;;5.72;2.90;;;;;;;12.33;97.60;101392.63;10524448;28;20078;-79
2022/01/02 03:49:11;;;;;;;16.98;4.15;;;;;;;12.43;98.64;101389.56;10541807;28;20028;-78
2022/01/02 03:54:11;;;;;;;10.35;4.43;;;;;;;12.43;97.96;101373.28;10541130;28;20039;-78
2022/01/02 03:59:12;;;;;;;7.70;3.88;;;;;;;12.43;97.72;101370.56;10541543;28;20476;-78
2022/01/02 04:04:12;;;;;;;9.07;3.40;;;;;;;12.52;99.56;101372.09;10540845;28;20079;-78
2022/01/02 04:09:13;;;;;;;7.75;3.42;;;;;;;12.45;98.61;101357.63;10522066;28;20032;-79
2022/01/02 04:14:13;;;;;;;4.45;3.22;;;;;;;12.34;97.29;101359.00;10549196;28;20039;-79
2022/01/02 04:19:14;;;;;;;4.47;3.35;;;;;;;12.30;97.63;101368.59;10548383;28;20032;-79
2022/01/02 04:24:14;;;;;;;12.40;4.13;;;;;;;12.21;97.43;101342.59;10547745;28;20086;-79
2022/01/02 04:29:14;;;;;;;6.78;3.45;;;;;;;12.20;97.41;101336.34;10548386;28;20032;-79
2022/01/02 04:34:15;;;;;;;5.40;3.60;;;;;;;12.16;97.63;101324.22;10530269;28;20387;-79
2022/01/02 04:44:26;;;;;;;4.97;3.20;;;;;;;12.27;99.16;101310.06;10488625;23;20066;-78
2022/01/02 04:49:26;;;;;;;9.57;3.38;;;;;;;12.30;98.31;101293.38;10340556;28;20476;-79
2022/01/02 04:54:26;;;;;;;9.85;3.88;;;;;;;12.21;97.98;101278.28;10340402;28;20034;-78
2022/01/02 04:59:27;;;;;;;28.90;4.60;;;;;;;12.23;97.64;101264.53;10340239;28;20481;-79
2022/01/02 05:04:27;;;;;;;6.43;4.18;;;;;;;12.27;99.34;101258.47;10344282;28;20113;-79
2022/01/02 05:09:28;;;;;;;9.32;3.33;;;;;;;12.24;99.29;101258.88;10346135;28;20050;-80
2022/01/02 05:14:28;;;;;;;20.15;4.65;;;;;;;12.26;99.69;101235.09;10340221;28;20076;-78
2022/01/02 05:19:28;;;;;;;5.10;3.55;;;;;;;12.23;99.34;101224.63;10340029;28;20066;-77
2022/01/02 05:24:29;;;;;;;4.47;3.33;;;;;;;12.04;100.00;101211.78;10322324;28;20045;-77
2022/01/02 05:29:29;;;;;;;17.08;4.22;;;;;;;11.93;100.00;101187.88;10339826;28;20034;-77
2022/01/02 05:34:30;;;;;;;2.60;2.38;;;;;;;11.91;100.00;101185.38;10339467;28;20045;-76
2022/01/02 05:39:30;;;;;;;9.23;3.90;;;;;;;11.95;100.00;101183.13;10337819;28;20030;-78
2022/01/02 05:44:30;;;;;;;11.23;5.30;;;;;;;11.96;100.00;101177.47;10338506;28;20534;-78
2022/01/02 05:49:31;;;;;;;11.93;3.38;;;;;;;11.86;100.00;101161.56;10338365;28;20042;-77
2022/01/02 05:54:31;;;;;;;7.18;4.00;;;;;;;11.77;100.00;101162.75;10339099;28;20113;-77
2022/01/02 05:59:33;;;;;;;9.63;4.20;;;;;;;11.70;100.00;101150.97;10338408;28;20053;-78
2022/01/02 06:04:33;;;;;;;10.20;4.90;;;;;;;11.69;99.91;101114.06;10339038;28;20041;-77
2022/01/02 06:09:34;;;;;;;6.03;4.25;;;;;;;11.65;100.00;101118.22;10337596;28;20035;-77
2022/01/02 06:14:34;;;;;;;5.30;3.97;;;;;;;11.58;99.40;101112.75;10337767;28;20070;-77
2022/01/02 06:19:34;;;;;;;5.93;3.75;;;;;;;11.63;99.38;101106.72;10319501;28;20089;-77
2022/01/02 06:24:35;;;;;;;5.05;4.47;;;;;;;11.66;98.86;101084.63;10336693;28;20046;-78
2022/01/02 06:29:35;;;;;;;3.65;3.33;;;;;;;11.70;98.49;101072.31;10337279;28;20474;-78
2022/01/02 06:34:36;;;;;;;7.45;5.00;;;;;;;11.70;98.81;101058.75;10303009;28;20065;-78
2022/01/02 06:39:36;;;;;;;4.45;3.75;;;;;;;11.70;97.38;101074.19;10336649;28;20026;-78
2022/01/02 06:44:36;;;;;;;6.95;3.97;;;;;;;11.77;97.87;101069.63;10337001;28;20075;-77
2022/01/02 06:49:37;;;;;;;9.38;4.38;;;;;;;11.81;98.98;101070.94;10302155;28;20058;-77
2022/01/02 06:54:37;;;;;;;6.82;3.45;;;;;;;11.66;96.53;101060.19;10318102;28;20034;-78
2022/01/02 06:59:38;;;;;;;4.72;2.72;;;;;;;11.56;95.93;101047.00;10336448;28;20061;-77
2022/01/02 07:04:38;;;;;;;7.43;3.90;;;;;;;11.58;96.71;101066.63;10335389;28;20091;-77
2022/01/02 07:09:39;;;;;;;4.10;3.72;;;;;;;11.67;97.68;101053.72;10334484;28;20057;-78
2022/01/02 07:14:39;;;;;;;6.45;3.35;;;;;;;11.74;97.84;101070.91;10335563;28;20042;-79
2022/01/02 07:19:39;;;;;;;11.50;3.45;;;;;;;11.75;97.23;101075.28;10319834;28;20031;-78
2022/01/02 07:24:40;;;;;;;7.72;3.85;;;;;;;11.79;97.12;101091.97;10324284;28;20403;-79
2022/01/02 07:29:40;;;;;;;10.48;4.30;;;;;;;11.85;96.37;101075.75;10340527;28;20109;-77
2022/01/02 07:34:42;;;;;;;4.65;2.97;;;;;;;11.82;96.26;101065.28;10335050;28;20042;-78
2022/01/02 07:39:42;;;;;;;7.05;4.40;;;;;;;11.74;97.58;101070.91;10332873;28;20042;-78
2022/01/02 07:44:42;;;;;;;4.60;3.33;;;;;;;11.60;97.28;101055.56;10315019;28;20057;-78
2022/01/02 07:49:43;;;;;;;7.78;4.50;;;;;;;11.61;99.74;101059.94;10334765;28;20057;-79
2022/01/02 07:54:43;;;;;;;10.18;4.70;;;;;;;11.64;98.22;101054.13;10334585;28;20041;-78
2022/01/02 07:59:44;;;;;;;3.28;2.97;;;;;;;11.77;99.27;101069.63;10332979;28;20034;-79
2022/01/02 08:04:44;;;;;;;12.95;6.07;;;;;;;11.78;99.87;101061.31;10332964;28;20042;-78
2022/01/02 08:09:44;;;;;;;6.97;4.28;;;;;;;11.67;99.93;101059.16;10315218;28;20457;-79
2022/01/02 08:14:45;;;;;;;4.22;3.80;;;;;;;11.59;100.00;101056.63;10333220;28;20042;-78
2022/01/02 08:19:45;;;;;;;11.70;5.03;;;;;;;11.61;100.00;101049.97;10242517;28;20047;-77
2022/01/02 08:24:46;;;;;;;6.95;5.10;;;;;;;11.64;99.61;101054.13;10329240;28;20038;-78
2022/01/02 08:29:46;;;;;;;7.30;5.07;;;;;;;11.61;99.80;101043.66;10333745;28;20384;-79
2022/01/02 08:34:47;;;;;;;9.57;5.20;;;;;;;11.54;98.31;101056.38;10335822;28;20041;-80
2022/01/02 08:39:47;;;;;;;4.90;4.50;;;;;;;11.47;98.27;101050.06;10301462;28;20029;-80
2022/01/02 08:44:48;;;;;;;8.63;5.00;;;;;;;11.42;96.57;101050.66;10335181;28;20057;-81
2022/01/02 08:49:48;;;;;;;10.90;7.32;;;;;;;11.39;96.01;101040.22;10332951;28;20093;-80
2022/01/02 08:54:49;;;;;;;9.75;4.88;;;;;;;11.56;96.45;101051.59;10315108;28;20101;-79
2022/01/02 08:59:49;;;;;;;14.90;5.50;;;;;;;12.53;93.53;101043.16;10338322;28;20027;-79
2022/01/02 09:04:49;;;;;;;7.85;4.45;;;;;;;12.84;91.70;101052.63;10297346;28;20054;-80
2022/01/02 09:09:50;;;;;;;8.70;5.03;;;;;;;12.66;90.76;101057.81;10300693;28;20089;-82
2022/01/02 09:14:50;;;;;;;9.82;6.30;;;;;;;12.38;92.06;101056.13;10283628;28;20035;-81
2022/01/02 09:19:52;;;;;;;7.55;6.55;;;;;;;12.67;89.80;101073.09;10299439;28;20477;-81
2022/01/02 09:24:53;;;;;;;6.68;4.72;;;;;;;12.57;91.87;101062.59;10298786;28;20366;-82
2022/01/02 09:29:54;;;;;;;11.35;5.63;;;;;;;12.75;91.67;101072.88;10278569;28;20127;-79
2022/01/02 09:34:54;;;;;;;12.93;5.45;;;;;;;13.35;90.23;101062.84;10281234;28;20126;-79
2022/01/02 09:39:55;;;;;;;8.60;5.53;;;;;;;13.85;88.54;101065.03;10301205;28;20062;-79
2022/01/02 09:44:55;;;;;;;15.75;5.50;;;;;;;14.01;88.08;101066.41;10322841;28;20124;-80
2022/01/02 09:49:57;;;;;;;10.18;5.38;;;;;;;13.04;90.58;101074.34;10300752;28;20096;-80
2022/01/02 09:54:57;;;;;;;13.55;5.70;;;;;;;12.59;93.78;101071.41;10299389;28;20367;-79
2022/01/02 09:59:58;;;;;;;27.92;5.45;;;;;;;12.30;93.40;101070.72;10316214;28;20026;-81
2022/01/02 10:05:02;;;;;;;15.60;5.53;;;;;;;12.22;94.98;101067.34;10299815;28;20031;-81
2022/01/02 10:10:12;;;;;;;11.82;5.00;;;;;;;12.27;95.78;101073.84;10285002;28;20034;-80
2022/01/02 10:15:20;;;;;;;7.32;5.07;;;;;;;12.23;94.52;101059.00;10297453;28;20046;-79
2022/01/02 10:20:22;;;;;;;9.30;4.70;;;;;;;12.32;95.18;101059.66;10297425;28;20061;-81
2022/01/02 10:26:08;;;;;;;20.48;5.65;;;;;;;12.39;95.87;101084.94;10282743;28;20093;-80
2022/01/02 10:31:09;;;;;;;14.75;5.53;;;;;;;12.31;96.03;101088.66;10298181;28;20049;-80
2022/01/02 10:36:09;;;;;;;17.83;5.68;;;;;;;12.39;95.23;101076.78;10297963;28;20121;-79
2022/01/02 10:41:10;;;;;;;16.00;5.20;;;;;;;12.39;96.30;101084.13;10277849;28;20081;-80
2022/01/02 10:46:10;;;;;;;18.20;5.22;;;;;;;12.48;95.52;101089.16;10279485;28;20055;-79
2022/01/02 10:51:16;;;;;;;15.20;7.05;;;;;;;13.24;94.95;101086.09;10296967;28;20485;-80
2022/01/02 10:56:16;;;;;;;31.20;7.28;;;;;;;12.68;94.53;101101.94;10262184;28;20458;-79
2022/01/02 11:01:17;;;;;;;26.80;7.53;;;;;;;12.47;95.56;101100.19;10294208;28;20048;-79
2022/01/02 11:06:26;;;;;;;14.57;6.00;;;;;;;12.34;95.91;101109.97;10294229;28;20098;-79
2022/01/02 11:11:27;;;;;;;25.10;5.85;;;;;;;12.30;95.85;101110.59;10297195;28;20057;-79
2022/01/02 11:16:27;;;;;;;10.00;5.40;;;;;;;12.19;96.71;101109.31;10277415;28;20038;-78
2022/01/02 11:21:28;;;;;;;23.85;7.47;;;;;;;12.00;98.38;101118.22;10293632;28;20097;-79
2022/01/02 11:26:39;;;;;;;10.60;6.68;;;;;;;12.06;98.11;101130.97;10296206;28;20031;-79
2022/01/02 11:31:43;;;;;;;24.63;6.03;;;;;;;12.12;97.00;101130.16;10277311;28;20038;-79
2022/01/02 11:36:43;;;;;;;16.02;6.68;;;;;;;12.22;96.76;101130.66;10275847;28;20433;-78
2022/01/02 11:41:48;;;;;;;28.58;6.93;;;;;;;12.33;96.32;101130.03;10278014;28;20054;-78
2022/01/02 11:46:51;;;;;;;30.85;7.30;;;;;;;12.71;96.01;101131.41;10294441;28;20083;-79
2022/01/02 11:51:59;;;;;;;29.33;7.80;;;;;;;12.83;95.10;101126.19;10280771;28;20118;-79
2022/01/02 11:57:12;;;;;;;23.75;6.95;;;;;;;12.70;94.27;101124.28;10297254;28;20439;-76
2022/01/02 12:02:18;;;;;;;29.15;7.50;;;;;;;12.57;96.01;101128.66;10299406;28;20385;-78
2022/01/02 12:07:34;;;;;;;25.48;7.32;;;;;;;12.48;97.23;101129.06;10290084;28;20066;-76
2022/01/02 12:13:02;;;;;;;25.67;8.55;;;;;;;12.37;96.62;101124.22;10293381;28;20426;-78
2022/01/02 12:18:10;;;;;;;18.58;7.00;;;;;;;12.58;96.21;101137.66;10278812;28;20030;-78
2022/01/02 12:23:10;;;;;;;18.08;5.40;;;;;;;12.99;94.08;101136.69;10276008;28;20121;-79
2022/01/02 12:28:10;;;;;;;16.77;7.32;;;;;;;13.33;94.01;101127.50;10291938;28;20035;-78
2022/01/02 12:33:24;;;;;;;32.20;8.98;;;;;;;13.00;92.76;101130.19;10298076;28;20472;-79
2022/01/02 12:38:24;;;;;;;20.00;6.20;;;;;;;12.95;95.06;101116.38;10300295;28;20038;-76
2022/01/02 12:43:25;;;;;;;28.35;8.73;;;;;;;12.85;93.82;101122.22;10289514;28;20055;-74
2022/01/02 12:48:35;;;;;;;29.55;7.65;;;;;;;12.80;95.73;101108.44;10244349;29;20444;-75
2022/01/02 12:53:35;;;;;;;28.55;9.13;;;;;;;12.75;96.69;101117.19;10244756;29;20042;-79
2022/01/02 12:58:37;;;;;;;30.77;7.50;;;;;;;12.68;96.64;101119.06;10244545;29;20031;-76
2022/01/02 13:03:37;;;;;;;23.60;7.40;;;;;;;12.84;94.70;101133.31;10260805;29;20055;-75
2022/01/02 13:08:37;;;;;;;38.40;8.68;;;;;;;12.62;94.40;101132.63;10272224;28;20062;-77
2022/01/02 13:13:38;;;;;;;16.27;6.70;;;;;;;12.45;96.05;101143.88;10299601;28;20102;-78
2022/01/02 13:18:38;;;;;;;15.90;4.80;;;;;;;12.30;95.31;101148.63;10298742;28;20054;-76
2022/01/02 13:23:38;;;;;;;10.57;3.45;;;;;;;12.10;95.18;101156.69;10264885;28;20378;-77
2022/01/02 13:28:39;;;;;;;14.23;5.95;;;;;;;11.95;96.35;101154.09;10250400;28;20023;-78
2022/01/02 13:33:43;;;;;;;20.25;6.72;;;;;;;11.70;96.76;101145.56;10282086;28;20035;-76
2022/01/02 13:38:55;;;;;;;15.35;6.43;;;;;;;11.59;96.93;101157.81;10281095;28;20466;-77
2022/01/02 13:43:56;;;;;;;21.25;5.28;;;;;;;11.39;97.91;101160.38;10280578;28;20082;-76
2022/01/02 13:48:56;;;;;;;16.92;5.28;;;;;;;11.35;98.00;101169.09;10280784;28;20030;-76
2022/01/02 13:53:57;;;;;;;18.38;5.82;;;;;;;11.18;98.42;101165.81;10281607;28;20038;-76
2022/01/02 13:58:58;;;;;;;19.95;4.35;;;;;;;11.13;98.39;101160.13;10282096;28;20050;-76
2022/01/02 14:04:00;;;;;;;12.90;4.00;;;;;;;11.00;100.00;101165.44;10298060;28;20037;-74
2022/01/02 14:09:07;;;;;;;6.57;3.38;;;;;;;11.17;100.00;101158.72;10297075;28;20029;-77
2022/01/02 14:14:17;;;;;;;22.35;4.53;;;;;;;11.25;100.00;101161.28;10283799;28;20046;-75
2022/01/02 14:19:17;;;;;;;12.88;4.07;;;;;;;11.39;100.00;101148.66;10303026;28;20050;-75
2022/01/02 14:24:18;;;;;;;9.40;3.80;;;;;;;11.37;99.31;101157.00;10297291;28;20049;-75
2022/01/02 14:29:18;;;;;;;15.07;4.22;;;;;;;11.37;99.73;101156.19;10278971;28;20031;-75
2022/01/02 14:34:19;;;;;;;27.33;5.63;;;;;;;11.40;99.23;101159.34;10296424;28;20181;-78
2022/01/02 14:39:19;;;;;;;32.65;6.78;;;;;;;11.32;98.47;101154.03;10277431;28;20363;-77
2022/01/02 14:44:20;;;;;;;14.30;5.05;;;;;;;11.36;98.82;101149.94;10295477;28;20057;-79
2022/01/02 14:49:20;;;;;;;15.95;5.20;;;;;;;11.30;99.14;101150.72;10277899;28;20039;-78
2022/01/02 14:54:21;;;;;;;19.30;6.88;;;;;;;11.27;99.79;101151.09;10277549;28;20069;-78
2022/01/02 14:59:22;;;;;;;18.75;5.00;;;;;;;11.16;98.65;101138.06;10277473;28;20450;-77
2022/01/02 15:04:22;;;;;;;17.05;5.60;;;;;;;11.17;98.82;101139.75;10294821;28;20474;-77
2022/01/02 15:09:22;;;;;;;31.30;5.75;;;;;;;11.17;99.19;101139.75;10276533;28;20037;-76
2022/01/02 15:14:23;;;;;;;26.13;6.53;;;;;;;11.06;98.16;101132.16;10294013;28;20117;-76
2022/01/02 15:19:23;;;;;;;13.02;4.05;;;;;;;10.97;99.00;101130.59;10289733;28;20463;-76
2022/01/02 15:24:24;;;;;;;21.08;5.00;;;;;;;10.95;98.91;101119.97;10294100;28;20042;-77
2022/01/02 15:29:24;;;;;;;15.82;5.22;;;;;;;10.91;98.26;101124.94;10271386;28;20077;-75
